sensor_id;sensor_type;location;lat;lon;timestamp;temperature;humidity
20171;DHT22;10245;51.344;6.620;2023-05-27T00:00:49;11.80;73.10
20171;DHT22;10245;51.344;6.620;2023-05-27T00:03:12;11.80;72.80
20171;DHT22;10245;51.344;6.620;2023-05-27T00:05:36;11.70;73.50
20171;DHT22;10245;51.344;6.620;2023-05-27T00:07:59;11.70;72.90
20171;DHT22;10245;51.344;6.620;2023-05-27T00:10:24;11.60;72.80
20171;DHT22;10245;51.344;6.620;2023-05-27T00:12:48;11.60;72.90
20171;DHT22;10245;51.344;6.620;2023-05-27T00:15:12;11.60;73.50
20171;DHT22;10245;51.344;6.620;2023-05-27T00:17:36;11.50;73.30
20171;DHT22;10245;51.344;6.620;2023-05-27T00:20:01;11.50;73.90
20171;DHT22;10245;51.344;6.620;2023-05-27T00:22:29;11.50;74.00
20171;DHT22;10245;51.344;6.620;2023-05-27T00:24:53;11.50;73.90
20171;DHT22;10245;51.344;6.620;2023-05-27T00:27:18;11.40;74.70
20171;DHT22;10245;51.344;6.620;2023-05-27T00:29:42;11.30;74.40
20171;DHT22;10245;51.344;6.620;2023-05-27T00:32:05;11.30;74.40
20171;DHT22;10245;51.344;6.620;2023-05-27T00:34:28;11.40;74.60
20171;DHT22;10245;51.344;6.620;2023-05-27T00:36:52;11.30;74.00
20171;DHT22;10245;51.344;6.620;2023-05-27T00:39:15;11.30;74.40
20171;DHT22;10245;51.344;6.620;2023-05-27T00:41:43;11.30;74.90
20171;DHT22;10245;51.344;6.620;2023-05-27T00:44:12;11.30;73.90
20171;DHT22;10245;51.344;6.620;2023-05-27T00:46:35;11.20;74.50
20171;DHT22;10245;51.344;6.620;2023-05-27T00:48:59;11.20;74.70
20171;DHT22;10245;51.344;6.620;2023-05-27T00:51:22;11.10;74.00
20171;DHT22;10245;51.344;6.620;2023-05-27T00:53:46;11.10;74.10
20171;DHT22;10245;51.344;6.620;2023-05-27T00:56:10;11.10;74.60
20171;DHT22;10245;51.344;6.620;2023-05-27T00:58:34;11.00;74.40
20171;DHT22;10245;51.344;6.620;2023-05-27T01:00:59;11.00;75.00
20171;DHT22;10245;51.344;6.620;2023-05-27T01:03:23;11.00;74.50
20171;DHT22;10245;51.344;6.620;2023-05-27T01:05:47;11.00;74.60
20171;DHT22;10245;51.344;6.620;2023-05-27T01:08:22;10.90;74.90
20171;DHT22;10245;51.344;6.620;2023-05-27T01:10:52;11.00;75.60
20171;DHT22;10245;51.344;6.620;2023-05-27T01:13:30;10.90;75.20
20171;DHT22;10245;51.344;6.620;2023-05-27T01:15:59;10.80;75.80
20171;DHT22;10245;51.344;6.620;2023-05-27T01:18:27;10.80;75.90
20171;DHT22;10245;51.344;6.620;2023-05-27T01:20:53;10.80;76.00
20171;DHT22;10245;51.344;6.620;2023-05-27T01:23:21;10.80;75.80
20171;DHT22;10245;51.344;6.620;2023-05-27T01:25:46;10.70;76.10
20171;DHT22;10245;51.344;6.620;2023-05-27T01:28:10;10.60;76.60
20171;DHT22;10245;51.344;6.620;2023-05-27T01:30:33;10.60;76.30
20171;DHT22;10245;51.344;6.620;2023-05-27T01:33:01;10.60;76.40
20171;DHT22;10245;51.344;6.620;2023-05-27T01:35:29;10.60;76.60
20171;DHT22;10245;51.344;6.620;2023-05-27T01:37:54;10.60;76.40
20171;DHT22;10245;51.344;6.620;2023-05-27T01:40:22;10.60;77.00
20171;DHT22;10245;51.344;6.620;2023-05-27T01:42:47;10.50;77.20
20171;DHT22;10245;51.344;6.620;2023-05-27T01:45:11;10.50;77.40
20171;DHT22;10245;51.344;6.620;2023-05-27T01:47:35;10.50;77.40
20171;DHT22;10245;51.344;6.620;2023-05-27T01:49:58;10.40;77.50
20171;DHT22;10245;51.344;6.620;2023-05-27T01:52:22;10.50;77.70
20171;DHT22;10245;51.344;6.620;2023-05-27T01:54:46;10.30;77.60
20171;DHT22;10245;51.344;6.620;2023-05-27T01:57:11;10.30;78.30
20171;DHT22;10245;51.344;6.620;2023-05-27T01:59:34;10.20;77.90
20171;DHT22;10245;51.344;6.620;2023-05-27T02:01:58;10.30;78.30
20171;DHT22;10245;51.344;6.620;2023-05-27T02:04:21;10.20;78.40
20171;DHT22;10245;51.344;6.620;2023-05-27T02:06:45;10.20;78.20
20171;DHT22;10245;51.344;6.620;2023-05-27T02:09:11;10.20;78.00
20171;DHT22;10245;51.344;6.620;2023-05-27T02:11:35;10.10;78.40
20171;DHT22;10245;51.344;6.620;2023-05-27T02:14:00;10.20;78.70
20171;DHT22;10245;51.344;6.620;2023-05-27T02:16:23;10.10;78.20
20171;DHT22;10245;51.344;6.620;2023-05-27T02:18:47;10.10;78.60
20171;DHT22;10245;51.344;6.620;2023-05-27T02:21:11;10.00;78.80
20171;DHT22;10245;51.344;6.620;2023-05-27T02:23:35;10.00;79.00
20171;DHT22;10245;51.344;6.620;2023-05-27T02:25:59;10.00;78.90
20171;DHT22;10245;51.344;6.620;2023-05-27T02:28:23;10.00;79.10
20171;DHT22;10245;51.344;6.620;2023-05-27T02:30:51;10.00;79.40
20171;DHT22;10245;51.344;6.620;2023-05-27T02:33:14;9.90;79.30
20171;DHT22;10245;51.344;6.620;2023-05-27T02:35:39;10.00;79.30
20171;DHT22;10245;51.344;6.620;2023-05-27T02:38:03;10.00;79.30
20171;DHT22;10245;51.344;6.620;2023-05-27T02:40:27;10.00;79.20
20171;DHT22;10245;51.344;6.620;2023-05-27T02:42:51;9.90;79.20
20171;DHT22;10245;51.344;6.620;2023-05-27T02:45:15;9.90;79.70
20171;DHT22;10245;51.344;6.620;2023-05-27T02:47:40;9.90;79.70
20171;DHT22;10245;51.344;6.620;2023-05-27T02:50:04;9.80;79.70
20171;DHT22;10245;51.344;6.620;2023-05-27T02:52:28;9.80;80.30
20171;DHT22;10245;51.344;6.620;2023-05-27T02:54:51;9.80;80.00
20171;DHT22;10245;51.344;6.620;2023-05-27T02:57:15;9.70;80.00
20171;DHT22;10245;51.344;6.620;2023-05-27T02:59:40;9.60;80.20
20171;DHT22;10245;51.344;6.620;2023-05-27T03:02:04;9.70;80.30
20171;DHT22;10245;51.344;6.620;2023-05-27T03:04:29;9.70;80.30
20171;DHT22;10245;51.344;6.620;2023-05-27T03:06:52;9.70;80.30
20171;DHT22;10245;51.344;6.620;2023-05-27T03:09:16;9.60;80.40
20171;DHT22;10245;51.344;6.620;2023-05-27T03:11:40;9.50;80.70
20171;DHT22;10245;51.344;6.620;2023-05-27T03:14:05;9.50;80.80
20171;DHT22;10245;51.344;6.620;2023-05-27T03:16:28;9.50;80.70
20171;DHT22;10245;51.344;6.620;2023-05-27T03:18:52;9.50;81.00
20171;DHT22;10245;51.344;6.620;2023-05-27T03:21:17;9.50;81.20
20171;DHT22;10245;51.344;6.620;2023-05-27T03:23:40;9.50;81.40
20171;DHT22;10245;51.344;6.620;2023-05-27T03:26:04;9.40;81.50
20171;DHT22;10245;51.344;6.620;2023-05-27T03:28:28;9.50;81.40
20171;DHT22;10245;51.344;6.620;2023-05-27T03:30:52;9.40;81.40
20171;DHT22;10245;51.344;6.620;2023-05-27T03:33:31;9.40;81.70
20171;DHT22;10245;51.344;6.620;2023-05-27T03:35:54;9.30;81.70
20171;DHT22;10245;51.344;6.620;2023-05-27T03:38:19;9.40;81.60
20171;DHT22;10245;51.344;6.620;2023-05-27T03:40:43;9.30;81.60
20171;DHT22;10245;51.344;6.620;2023-05-27T03:43:06;9.20;82.20
20171;DHT22;10245;51.344;6.620;2023-05-27T03:45:30;9.30;82.20
20171;DHT22;10245;51.344;6.620;2023-05-27T03:47:53;9.30;82.70
20171;DHT22;10245;51.344;6.620;2023-05-27T03:50:17;9.40;82.70
20171;DHT22;10245;51.344;6.620;2023-05-27T03:52:41;9.30;82.90
20171;DHT22;10245;51.344;6.620;2023-05-27T03:55:07;9.30;82.80
20171;DHT22;10245;51.344;6.620;2023-05-27T03:57:31;9.30;82.90
20171;DHT22;10245;51.344;6.620;2023-05-27T03:59:54;9.20;82.30
20171;DHT22;10245;51.344;6.620;2023-05-27T04:02:18;9.20;82.40
20171;DHT22;10245;51.344;6.620;2023-05-27T04:04:41;9.20;82.70
20171;DHT22;10245;51.344;6.620;2023-05-27T04:07:06;9.20;82.70
20171;DHT22;10245;51.344;6.620;2023-05-27T04:09:30;9.10;83.10
20171;DHT22;10245;51.344;6.620;2023-05-27T04:11:54;9.10;82.90
20171;DHT22;10245;51.344;6.620;2023-05-27T04:14:18;9.20;82.90
20171;DHT22;10245;51.344;6.620;2023-05-27T04:16:41;9.30;83.10
20171;DHT22;10245;51.344;6.620;2023-05-27T04:19:05;9.30;82.90
20171;DHT22;10245;51.344;6.620;2023-05-27T04:21:29;9.30;82.70
20171;DHT22;10245;51.344;6.620;2023-05-27T04:23:53;9.40;82.60
20171;DHT22;10245;51.344;6.620;2023-05-27T04:26:17;9.30;82.60
20171;DHT22;10245;51.344;6.620;2023-05-27T04:28:48;9.40;82.60
20171;DHT22;10245;51.344;6.620;2023-05-27T04:31:12;9.30;82.40
20171;DHT22;10245;51.344;6.620;2023-05-27T04:33:41;9.50;83.20
20171;DHT22;10245;51.344;6.620;2023-05-27T04:36:06;9.40;82.90
20171;DHT22;10245;51.344;6.620;2023-05-27T04:38:46;9.40;82.60
20171;DHT22;10245;51.344;6.620;2023-05-27T04:41:09;9.30;82.40
20171;DHT22;10245;51.344;6.620;2023-05-27T04:43:51;9.50;82.70
20171;DHT22;10245;51.344;6.620;2023-05-27T04:46:19;9.50;82.60
20171;DHT22;10245;51.344;6.620;2023-05-27T04:48:43;9.50;82.50
20171;DHT22;10245;51.344;6.620;2023-05-27T04:51:08;9.50;82.40
20171;DHT22;10245;51.344;6.620;2023-05-27T04:53:31;9.50;83.00
20171;DHT22;10245;51.344;6.620;2023-05-27T04:55:56;9.60;82.60
20171;DHT22;10245;51.344;6.620;2023-05-27T04:58:20;9.60;82.50
20171;DHT22;10245;51.344;6.620;2023-05-27T05:00:46;9.70;82.40
20171;DHT22;10245;51.344;6.620;2023-05-27T05:03:15;9.70;82.20
20171;DHT22;10245;51.344;6.620;2023-05-27T05:05:43;9.70;82.20
20171;DHT22;10245;51.344;6.620;2023-05-27T05:08:07;9.70;82.10
20171;DHT22;10245;51.344;6.620;2023-05-27T05:10:31;9.70;82.00
20171;DHT22;10245;51.344;6.620;2023-05-27T05:12:55;9.80;82.50
20171;DHT22;10245;51.344;6.620;2023-05-27T05:15:18;9.90;82.30
20171;DHT22;10245;51.344;6.620;2023-05-27T05:17:44;9.80;82.00
20171;DHT22;10245;51.344;6.620;2023-05-27T05:20:09;10.00;82.30
20171;DHT22;10245;51.344;6.620;2023-05-27T05:22:35;10.00;81.90
20171;DHT22;10245;51.344;6.620;2023-05-27T05:24:58;10.10;82.20
20171;DHT22;10245;51.344;6.620;2023-05-27T05:27:30;10.20;82.10
20171;DHT22;10245;51.344;6.620;2023-05-27T05:29:53;10.20;81.90
20171;DHT22;10245;51.344;6.620;2023-05-27T05:32:17;10.30;82.10
20171;DHT22;10245;51.344;6.620;2023-05-27T05:34:41;10.40;81.30
20171;DHT22;10245;51.344;6.620;2023-05-27T05:37:05;10.50;81.50
20171;DHT22;10245;51.344;6.620;2023-05-27T05:39:29;10.70;81.60
20171;DHT22;10245;51.344;6.620;2023-05-27T05:41:52;10.80;81.30
20171;DHT22;10245;51.344;6.620;2023-05-27T05:44:17;11.00;80.70
20171;DHT22;10245;51.344;6.620;2023-05-27T05:46:42;11.20;80.10
20171;DHT22;10245;51.344;6.620;2023-05-27T05:49:05;11.30;79.90
20171;DHT22;10245;51.344;6.620;2023-05-27T05:51:35;11.50;78.90
20171;DHT22;10245;51.344;6.620;2023-05-27T05:53:59;11.50;78.90
20171;DHT22;10245;51.344;6.620;2023-05-27T05:56:24;11.50;77.80
20171;DHT22;10245;51.344;6.620;2023-05-27T05:58:48;11.60;79.20
20171;DHT22;10245;51.344;6.620;2023-05-27T06:01:11;11.80;77.90
20171;DHT22;10245;51.344;6.620;2023-05-27T06:03:36;11.90;77.70
20171;DHT22;10245;51.344;6.620;2023-05-27T06:06:03;11.90;77.50
20171;DHT22;10245;51.344;6.620;2023-05-27T06:08:31;11.80;77.60
20171;DHT22;10245;51.344;6.620;2023-05-27T06:10:59;12.10;76.60
20171;DHT22;10245;51.344;6.620;2023-05-27T06:13:25;12.20;76.00
20171;DHT22;10245;51.344;6.620;2023-05-27T06:15:50;12.30;77.00
20171;DHT22;10245;51.344;6.620;2023-05-27T06:18:14;12.40;77.00
20171;DHT22;10245;51.344;6.620;2023-05-27T06:20:37;12.60;76.60
20171;DHT22;10245;51.344;6.620;2023-05-27T06:23:01;12.80;74.80
20171;DHT22;10245;51.344;6.620;2023-05-27T06:25:41;13.00;75.10
20171;DHT22;10245;51.344;6.620;2023-05-27T06:28:05;13.10;74.30
20171;DHT22;10245;51.344;6.620;2023-05-27T06:30:29;13.00;73.60
20171;DHT22;10245;51.344;6.620;2023-05-27T06:32:54;13.10;74.40
20171;DHT22;10245;51.344;6.620;2023-05-27T06:35:20;13.30;74.90
20171;DHT22;10245;51.344;6.620;2023-05-27T06:37:43;13.50;71.90
20171;DHT22;10245;51.344;6.620;2023-05-27T06:40:10;13.60;71.40
20171;DHT22;10245;51.344;6.620;2023-05-27T06:42:36;13.60;71.20
20171;DHT22;10245;51.344;6.620;2023-05-27T06:45:25;13.70;71.00
20171;DHT22;10245;51.344;6.620;2023-05-27T06:48:01;13.80;73.30
20171;DHT22;10245;51.344;6.620;2023-05-27T06:50:25;13.80;70.70
20171;DHT22;10245;51.344;6.620;2023-05-27T06:52:48;13.90;70.30
20171;DHT22;10245;51.344;6.620;2023-05-27T06:55:30;14.00;70.00
20171;DHT22;10245;51.344;6.620;2023-05-27T06:58:14;14.00;70.10
20171;DHT22;10245;51.344;6.620;2023-05-27T07:01:03;14.00;71.60
20171;DHT22;10245;51.344;6.620;2023-05-27T07:03:33;14.70;71.30
20171;DHT22;10245;51.344;6.620;2023-05-27T07:05:58;14.80;69.50
20171;DHT22;10245;51.344;6.620;2023-05-27T07:08:25;14.30;70.40
20171;DHT22;10245;51.344;6.620;2023-05-27T07:11:08;14.50;69.80
20171;DHT22;10245;51.344;6.620;2023-05-27T07:13:34;15.00;68.10
20171;DHT22;10245;51.344;6.620;2023-05-27T07:15:58;15.30;65.60
20171;DHT22;10245;51.344;6.620;2023-05-27T07:18:22;15.00;69.20
20171;DHT22;10245;51.344;6.620;2023-05-27T07:20:49;15.60;65.90
20171;DHT22;10245;51.344;6.620;2023-05-27T07:23:13;15.50;63.50
20171;DHT22;10245;51.344;6.620;2023-05-27T07:25:40;15.40;64.80
20171;DHT22;10245;51.344;6.620;2023-05-27T07:28:04;15.70;64.70
20171;DHT22;10245;51.344;6.620;2023-05-27T07:30:34;15.60;63.60
20171;DHT22;10245;51.344;6.620;2023-05-27T07:33:00;15.70;68.50
20171;DHT22;10245;51.344;6.620;2023-05-27T07:35:24;15.10;66.60
20171;DHT22;10245;51.344;6.620;2023-05-27T07:37:47;15.10;64.40
20171;DHT22;10245;51.344;6.620;2023-05-27T07:40:10;14.60;69.10
20171;DHT22;10245;51.344;6.620;2023-05-27T07:42:36;15.50;66.00
20171;DHT22;10245;51.344;6.620;2023-05-27T07:44:59;16.00;68.20
20171;DHT22;10245;51.344;6.620;2023-05-27T07:47:24;15.50;65.20
20171;DHT22;10245;51.344;6.620;2023-05-27T07:49:49;16.00;67.10
20171;DHT22;10245;51.344;6.620;2023-05-27T07:52:31;16.20;64.00
20171;DHT22;10245;51.344;6.620;2023-05-27T07:54:58;16.00;63.00
20171;DHT22;10245;51.344;6.620;2023-05-27T07:57:21;15.80;67.40
20171;DHT22;10245;51.344;6.620;2023-05-27T07:59:45;16.50;61.60
20171;DHT22;10245;51.344;6.620;2023-05-27T08:02:08;15.90;63.50
20171;DHT22;10245;51.344;6.620;2023-05-27T08:04:34;16.30;64.80
20171;DHT22;10245;51.344;6.620;2023-05-27T08:07:16;16.90;62.90
20171;DHT22;10245;51.344;6.620;2023-05-27T08:09:47;17.00;61.00
20171;DHT22;10245;51.344;6.620;2023-05-27T08:12:36;16.50;63.90
20171;DHT22;10245;51.344;6.620;2023-05-27T08:15:26;16.80;60.70
20171;DHT22;10245;51.344;6.620;2023-05-27T08:18:10;16.60;63.20
20171;DHT22;10245;51.344;6.620;2023-05-27T08:20:53;16.30;62.90
20171;DHT22;10245;51.344;6.620;2023-05-27T08:23:30;16.90;62.00
20171;DHT22;10245;51.344;6.620;2023-05-27T08:26:12;17.50;61.40
20171;DHT22;10245;51.344;6.620;2023-05-27T08:29:05;17.10;61.90
20171;DHT22;10245;51.344;6.620;2023-05-27T08:31:46;17.30;61.50
20171;DHT22;10245;51.344;6.620;2023-05-27T08:34:13;17.60;62.60
20171;DHT22;10245;51.344;6.620;2023-05-27T08:36:38;16.90;59.70
20171;DHT22;10245;51.344;6.620;2023-05-27T08:39:02;17.00;63.00
20171;DHT22;10245;51.344;6.620;2023-05-27T08:41:42;17.50;60.40
20171;DHT22;10245;51.344;6.620;2023-05-27T08:44:06;18.00;59.90
20171;DHT22;10245;51.344;6.620;2023-05-27T08:46:33;17.50;60.60
20171;DHT22;10245;51.344;6.620;2023-05-27T08:48:58;17.40;62.50
20171;DHT22;10245;51.344;6.620;2023-05-27T08:51:22;18.00;60.30
20171;DHT22;10245;51.344;6.620;2023-05-27T08:53:47;17.70;65.10
20171;DHT22;10245;51.344;6.620;2023-05-27T08:56:12;17.10;63.50
20171;DHT22;10245;51.344;6.620;2023-05-27T08:58:41;17.60;62.50
20171;DHT22;10245;51.344;6.620;2023-05-27T09:01:05;18.40;58.10
20171;DHT22;10245;51.344;6.620;2023-05-27T09:03:30;18.80;57.20
20171;DHT22;10245;51.344;6.620;2023-05-27T09:05:54;19.20;55.70
20171;DHT22;10245;51.344;6.620;2023-05-27T09:08:18;18.70;61.50
20171;DHT22;10245;51.344;6.620;2023-05-27T09:10:42;18.90;58.20
20171;DHT22;10245;51.344;6.620;2023-05-27T09:13:06;19.10;60.00
20171;DHT22;10245;51.344;6.620;2023-05-27T09:15:31;19.00;56.70
20171;DHT22;10245;51.344;6.620;2023-05-27T09:17:54;18.50;59.60
20171;DHT22;10245;51.344;6.620;2023-05-27T09:20:25;18.30;58.90
20171;DHT22;10245;51.344;6.620;2023-05-27T09:22:48;18.10;62.70
20171;DHT22;10245;51.344;6.620;2023-05-27T09:25:15;18.80;58.60
20171;DHT22;10245;51.344;6.620;2023-05-27T09:27:42;19.20;58.60
20171;DHT22;10245;51.344;6.620;2023-05-27T09:30:07;19.60;56.10
20171;DHT22;10245;51.344;6.620;2023-05-27T09:32:31;19.60;55.80
20171;DHT22;10245;51.344;6.620;2023-05-27T09:34:55;19.60;53.30
20171;DHT22;10245;51.344;6.620;2023-05-27T09:37:18;19.70;52.70
20171;DHT22;10245;51.344;6.620;2023-05-27T09:39:42;19.70;57.30
20171;DHT22;10245;51.344;6.620;2023-05-27T09:42:06;18.90;57.60
20171;DHT22;10245;51.344;6.620;2023-05-27T09:44:35;18.50;56.10
20171;DHT22;10245;51.344;6.620;2023-05-27T09:47:02;18.80;57.30
20171;DHT22;10245;51.344;6.620;2023-05-27T09:49:28;19.00;62.70
20171;DHT22;10245;51.344;6.620;2023-05-27T09:51:52;19.70;58.10
20171;DHT22;10245;51.344;6.620;2023-05-27T09:54:18;19.80;54.40
20171;DHT22;10245;51.344;6.620;2023-05-27T09:56:43;20.10;56.70
20171;DHT22;10245;51.344;6.620;2023-05-27T09:59:08;20.50;55.70
20171;DHT22;10245;51.344;6.620;2023-05-27T10:01:33;21.20;50.00
20171;DHT22;10245;51.344;6.620;2023-05-27T10:03:57;21.10;53.20
20171;DHT22;10245;51.344;6.620;2023-05-27T10:06:22;20.10;53.60
20171;DHT22;10245;51.344;6.620;2023-05-27T10:08:47;20.70;49.80
20171;DHT22;10245;51.344;6.620;2023-05-27T10:11:11;20.00;52.50
20171;DHT22;10245;51.344;6.620;2023-05-27T10:13:35;20.40;52.90
20171;DHT22;10245;51.344;6.620;2023-05-27T10:15:59;20.60;52.80
20171;DHT22;10245;51.344;6.620;2023-05-27T10:18:26;20.90;50.50
20171;DHT22;10245;51.344;6.620;2023-05-27T10:20:51;20.80;48.20
20171;DHT22;10245;51.344;6.620;2023-05-27T10:23:18;20.80;49.70
20171;DHT22;10245;51.344;6.620;2023-05-27T10:25:46;20.90;51.60
20171;DHT22;10245;51.344;6.620;2023-05-27T10:28:10;21.30;46.20
20171;DHT22;10245;51.344;6.620;2023-05-27T10:30:43;21.20;48.30
20171;DHT22;10245;51.344;6.620;2023-05-27T10:33:07;21.20;50.00
20171;DHT22;10245;51.344;6.620;2023-05-27T10:35:39;20.90;46.50
20171;DHT22;10245;51.344;6.620;2023-05-27T10:38:14;20.50;46.90
20171;DHT22;10245;51.344;6.620;2023-05-27T10:40:39;20.80;50.40
20171;DHT22;10245;51.344;6.620;2023-05-27T10:43:02;20.90;46.90
20171;DHT22;10245;51.344;6.620;2023-05-27T10:45:31;21.20;47.20
20171;DHT22;10245;51.344;6.620;2023-05-27T10:47:56;21.10;50.80
20171;DHT22;10245;51.344;6.620;2023-05-27T10:50:19;21.80;48.30
20171;DHT22;10245;51.344;6.620;2023-05-27T10:52:55;21.60;44.60
20171;DHT22;10245;51.344;6.620;2023-05-27T10:55:20;21.90;42.40
20171;DHT22;10245;51.344;6.620;2023-05-27T10:57:44;21.60;47.10
20171;DHT22;10245;51.344;6.620;2023-05-27T11:00:09;21.70;45.70
20171;DHT22;10245;51.344;6.620;2023-05-27T11:02:36;21.20;48.00
20171;DHT22;10245;51.344;6.620;2023-05-27T11:05:07;21.50;47.10
20171;DHT22;10245;51.344;6.620;2023-05-27T11:07:31;21.20;48.30
20171;DHT22;10245;51.344;6.620;2023-05-27T11:09:56;21.70;51.70
20171;DHT22;10245;51.344;6.620;2023-05-27T11:12:21;22.10;46.00
20171;DHT22;10245;51.344;6.620;2023-05-27T11:14:48;22.40;44.20
20171;DHT22;10245;51.344;6.620;2023-05-27T11:17:12;22.00;42.10
20171;DHT22;10245;51.344;6.620;2023-05-27T11:19:37;22.40;45.70
20171;DHT22;10245;51.344;6.620;2023-05-27T11:22:01;22.70;46.00
20171;DHT22;10245;51.344;6.620;2023-05-27T11:24:24;22.30;46.30
20171;DHT22;10245;51.344;6.620;2023-05-27T11:26:49;21.80;45.50
20171;DHT22;10245;51.344;6.620;2023-05-27T11:29:13;22.10;44.80
20171;DHT22;10245;51.344;6.620;2023-05-27T11:31:37;22.00;44.10
20171;DHT22;10245;51.344;6.620;2023-05-27T11:34:02;22.10;43.70
20171;DHT22;10245;51.344;6.620;2023-05-27T11:36:27;22.40;46.60
20171;DHT22;10245;51.344;6.620;2023-05-27T11:38:53;22.50;47.70
20171;DHT22;10245;51.344;6.620;2023-05-27T11:41:18;22.30;43.90
20171;DHT22;10245;51.344;6.620;2023-05-27T11:43:55;22.30;44.60
20171;DHT22;10245;51.344;6.620;2023-05-27T11:46:21;22.20;43.50
20171;DHT22;10245;51.344;6.620;2023-05-27T11:48:45;22.20;47.80
20171;DHT22;10245;51.344;6.620;2023-05-27T11:51:09;22.80;42.90
20171;DHT22;10245;51.344;6.620;2023-05-27T11:53:33;22.90;44.10
20171;DHT22;10245;51.344;6.620;2023-05-27T11:55:56;22.70;42.30
20171;DHT22;10245;51.344;6.620;2023-05-27T11:58:19;22.50;46.60
20171;DHT22;10245;51.344;6.620;2023-05-27T12:00:44;22.50;45.60
20171;DHT22;10245;51.344;6.620;2023-05-27T12:03:08;22.90;43.10
20171;DHT22;10245;51.344;6.620;2023-05-27T12:05:32;22.70;41.10
20171;DHT22;10245;51.344;6.620;2023-05-27T12:07:56;22.80;44.50
20171;DHT22;10245;51.344;6.620;2023-05-27T12:10:20;23.00;43.50
20171;DHT22;10245;51.344;6.620;2023-05-27T12:12:43;23.00;44.50
20171;DHT22;10245;51.344;6.620;2023-05-27T12:15:08;23.10;43.80
20171;DHT22;10245;51.344;6.620;2023-05-27T12:17:33;22.90;43.10
20171;DHT22;10245;51.344;6.620;2023-05-27T12:19:56;22.90;43.20
20171;DHT22;10245;51.344;6.620;2023-05-27T12:22:20;22.80;40.20
20171;DHT22;10245;51.344;6.620;2023-05-27T12:24:45;23.00;43.30
20171;DHT22;10245;51.344;6.620;2023-05-27T12:27:13;22.50;39.10
20171;DHT22;10245;51.344;6.620;2023-05-27T12:29:36;22.60;39.50
20171;DHT22;10245;51.344;6.620;2023-05-27T12:31:59;22.80;39.70
20171;DHT22;10245;51.344;6.620;2023-05-27T12:34:24;22.90;44.20
20171;DHT22;10245;51.344;6.620;2023-05-27T12:36:48;23.00;42.50
20171;DHT22;10245;51.344;6.620;2023-05-27T12:39:11;22.70;42.40
20171;DHT22;10245;51.344;6.620;2023-05-27T12:41:35;23.10;43.20
20171;DHT22;10245;51.344;6.620;2023-05-27T12:43:58;23.40;38.70
20171;DHT22;10245;51.344;6.620;2023-05-27T12:46:22;23.20;42.70
20171;DHT22;10245;51.344;6.620;2023-05-27T12:48:45;23.00;39.70
20171;DHT22;10245;51.344;6.620;2023-05-27T12:51:10;23.40;40.00
20171;DHT22;10245;51.344;6.620;2023-05-27T12:53:34;23.30;39.50
20171;DHT22;10245;51.344;6.620;2023-05-27T12:55:57;23.10;38.40
20171;DHT22;10245;51.344;6.620;2023-05-27T12:58:21;23.50;38.20
20171;DHT22;10245;51.344;6.620;2023-05-27T13:00:44;23.50;36.70
20171;DHT22;10245;51.344;6.620;2023-05-27T13:03:07;23.20;39.70
20171;DHT22;10245;51.344;6.620;2023-05-27T13:05:33;23.20;36.80
20171;DHT22;10245;51.344;6.620;2023-05-27T13:07:59;23.50;35.70
20171;DHT22;10245;51.344;6.620;2023-05-27T13:10:23;23.30;35.10
20171;DHT22;10245;51.344;6.620;2023-05-27T13:12:47;23.20;37.90
20171;DHT22;10245;51.344;6.620;2023-05-27T13:15:11;23.50;41.70
20171;DHT22;10245;51.344;6.620;2023-05-27T13:17:34;23.50;40.90
20171;DHT22;10245;51.344;6.620;2023-05-27T13:19:58;23.30;38.70
20171;DHT22;10245;51.344;6.620;2023-05-27T13:22:21;23.40;37.00
20171;DHT22;10245;51.344;6.620;2023-05-27T13:24:46;23.50;39.00
20171;DHT22;10245;51.344;6.620;2023-05-27T13:27:10;23.60;38.90
20171;DHT22;10245;51.344;6.620;2023-05-27T13:29:33;23.60;41.10
20171;DHT22;10245;51.344;6.620;2023-05-27T13:31:57;23.80;41.00
20171;DHT22;10245;51.344;6.620;2023-05-27T13:34:20;23.70;38.80
20171;DHT22;10245;51.344;6.620;2023-05-27T13:36:44;23.30;35.90
20171;DHT22;10245;51.344;6.620;2023-05-27T13:39:07;23.50;38.40
20171;DHT22;10245;51.344;6.620;2023-05-27T13:41:32;23.70;40.90
20171;DHT22;10245;51.344;6.620;2023-05-27T13:43:55;23.60;38.00
20171;DHT22;10245;51.344;6.620;2023-05-27T13:46:19;23.50;37.80
20171;DHT22;10245;51.344;6.620;2023-05-27T13:48:42;23.50;39.50
20171;DHT22;10245;51.344;6.620;2023-05-27T13:51:05;23.60;39.20
20171;DHT22;10245;51.344;6.620;2023-05-27T13:53:29;23.50;37.30
20171;DHT22;10245;51.344;6.620;2023-05-27T13:55:53;23.30;40.60
20171;DHT22;10245;51.344;6.620;2023-05-27T13:58:17;23.40;39.80
20171;DHT22;10245;51.344;6.620;2023-05-27T14:00:41;23.60;42.50
20171;DHT22;10245;51.344;6.620;2023-05-27T14:03:04;23.30;38.20
20171;DHT22;10245;51.344;6.620;2023-05-27T14:05:28;23.50;39.20
20171;DHT22;10245;51.344;6.620;2023-05-27T14:07:52;23.50;38.80
20171;DHT22;10245;51.344;6.620;2023-05-27T14:10:15;23.50;42.40
20171;DHT22;10245;51.344;6.620;2023-05-27T14:12:39;23.50;38.50
20171;DHT22;10245;51.344;6.620;2023-05-27T14:15:05;23.60;39.70
20171;DHT22;10245;51.344;6.620;2023-05-27T14:17:29;23.60;38.20
20171;DHT22;10245;51.344;6.620;2023-05-27T14:19:52;23.70;41.60
20171;DHT22;10245;51.344;6.620;2023-05-27T14:22:16;23.90;39.50
20171;DHT22;10245;51.344;6.620;2023-05-27T14:24:39;23.60;40.80
20171;DHT22;10245;51.344;6.620;2023-05-27T14:27:04;23.60;43.50
20171;DHT22;10245;51.344;6.620;2023-05-27T14:29:28;23.50;37.50
20171;DHT22;10245;51.344;6.620;2023-05-27T14:31:53;23.50;38.60
20171;DHT22;10245;51.344;6.620;2023-05-27T14:34:16;23.50;41.80
20171;DHT22;10245;51.344;6.620;2023-05-27T14:36:40;23.80;39.10
20171;DHT22;10245;51.344;6.620;2023-05-27T14:39:03;23.30;38.70
20171;DHT22;10245;51.344;6.620;2023-05-27T14:41:27;23.50;38.60
20171;DHT22;10245;51.344;6.620;2023-05-27T14:43:50;23.60;41.60
20171;DHT22;10245;51.344;6.620;2023-05-27T14:46:18;23.60;41.60
20171;DHT22;10245;51.344;6.620;2023-05-27T14:48:43;23.80;40.20
20171;DHT22;10245;51.344;6.620;2023-05-27T14:51:07;24.00;42.20
20171;DHT22;10245;51.344;6.620;2023-05-27T14:53:30;23.50;41.00
20171;DHT22;10245;51.344;6.620;2023-05-27T14:55:53;23.40;38.90
20171;DHT22;10245;51.344;6.620;2023-05-27T14:58:17;23.60;41.20
20171;DHT22;10245;51.344;6.620;2023-05-27T15:00:41;23.90;44.10
20171;DHT22;10245;51.344;6.620;2023-05-27T15:03:05;24.00;39.40
20171;DHT22;10245;51.344;6.620;2023-05-27T15:05:30;24.00;41.30
20171;DHT22;10245;51.344;6.620;2023-05-27T15:07:53;23.90;41.20
20171;DHT22;10245;51.344;6.620;2023-05-27T15:10:17;23.50;38.90
20171;DHT22;10245;51.344;6.620;2023-05-27T15:12:42;23.50;41.30
20171;DHT22;10245;51.344;6.620;2023-05-27T15:15:10;24.30;38.90
20171;DHT22;10245;51.344;6.620;2023-05-27T15:17:35;24.10;38.60
20171;DHT22;10245;51.344;6.620;2023-05-27T15:19:58;23.50;42.10
20171;DHT22;10245;51.344;6.620;2023-05-27T15:22:23;23.50;39.50